首页
METAR-TAF:

METAR-TAF

机场 :

西雅圖-塔科馬國際機場

西雅圖 / 塔科马, 华盛顿, 美国

纬度: 47-26-41N, 经度: 122-18-49W, 海拔: 130米

当前天气观测

该预报发布于29分钟前的19:53 UTC
风速7节,风向南转南东
温度 8°C
湿度 93%
气压 1019 hPa
能見度: 9.7公里
阴天层高于3000英尺
小雨, 轻雾

METAR: KSEA 291953Z 16007KT 6SM -RA BR OVC030 08/07 A3009 RMK AO2 SLP197 P0006 T00830067

时间: 12:22 (20:22 UTC)

预报

该预报发布于3小时和2分钟前的17:20 UTC
预报有效从29日的 18点(UTC)到 30日的 24点(UTC)
风速8节,风向南转南东
能見度: 10公里
阴天层高于3500英尺
小雨
从 29日的 1900点(UTC)
风速12节,风向
能見度: 8.0公里
散云层高于1000英尺
阴天层高于2000英尺
小雨
从 30日的 0000点(UTC)
风速9节,风向西南
能見度: 10公里
散云层高于600英尺
多云层高于1200英尺
阴天层高于2000英尺
从 30日的 0600点(UTC)
风速4节,风向多变
能見度: 10公里
多云层高于3500英尺
阴天层高于5000英尺
从 30日的 1200点(UTC)
风速4节,风向东转东南
能見度: 10公里
散云层高于2500英尺
多云层高于5000英尺
从 30日的 2100点(UTC)
风速7节,风向
能見度: 10公里
阴天层高于10000英尺

TAF: KSEA 291720Z 2918/3024 16008KT P6SM -RA OVC035 FM291900 18012KT 5SM -RA SCT010 OVC020 FM300000 22009KT P6SM SCT006 BKN012 OVC020 FM300600 VRB04KT P6SM BKN035 OVC050 FM301200 11004KT P6SM SCT025 BKN050 FM302100 18007KT P6SM OVC100

超过4000个机场的气象观测和天气预报(METAR&TAF报告)。

可查询的气象台以黄色和红色小点在地图上表示。

将鼠标移到小点上方,可查看气象台名称。

然后点击查看天气观测和预报。

如需切换地图:点击带黑十字的绿色按钮放大地图;点击带横线的绿色按钮缩小地图;或者点击绿色箭头查看邻近地区的地图。


METAR-TAF: